Time;durP1;ratioP1;P1;durP2;ratioP2;P2;SDS_P1;SDS_P2;PMS_P1;PMS_P2;Temp;Humidity;BMP_temperature;BMP_pressure;BME280_temperature;BME280_humidity;BME280_pressure;Samples;Min_cycle;Max_cycle;Signal;HPM_P1;HPM_P2
2022/09/12 00:00:30;;;;;;;9.20;7.90;;;12.40;99.90;;;12.04;100.00;97398.22;5010435;28;20083;-47
2022/09/12 00:02:56;;;;;;;9.10;7.40;;;12.40;99.90;;;11.99;100.00;97397.59;5008264;28;21252;-47
2022/09/12 00:05:22;;;;;;;9.90;8.23;;;12.30;99.90;;;11.98;100.00;97396.72;5009696;28;20116;-48
2022/09/12 00:07:48;;;;;;;9.30;8.07;;;12.30;99.90;;;11.96;100.00;97393.28;5009719;28;20485;-48
2022/09/12 00:10:15;;;;;;;9.25;7.40;;;12.30;99.90;;;11.94;100.00;97397.78;5008499;28;20025;-47
2022/09/12 00:12:41;;;;;;;9.50;8.15;;;12.30;99.90;;;11.85;100.00;97380.47;5009891;28;20190;-45
2022/09/12 00:15:07;;;;;;;11.27;7.82;;;12.30;99.90;;;11.90;100.00;97390.91;5011917;28;20028;-47
2022/09/12 00:17:34;;;;;;;8.80;7.38;;;12.30;99.90;;;11.89;100.00;97388.28;5011366;28;20033;-47
2022/09/12 00:20:02;;;;;;;9.63;8.10;;;12.20;99.90;;;11.71;100.00;97359.06;5013122;28;20442;-46
2022/09/12 00:22:27;;;;;;;10.35;8.00;;;12.20;99.90;;;11.84;100.00;97389.34;5013086;28;20088;-47
2022/09/12 00:24:53;;;;;;;10.55;7.55;;;12.20;99.90;;;11.83;100.00;97384.13;5013719;28;20748;-45
2022/09/12 00:27:19;;;;;;;12.02;8.82;;;12.20;99.90;;;11.82;100.00;97385.88;5010721;28;20036;-46
2022/09/12 00:29:44;;;;;;;10.32;7.85;;;12.20;99.90;;;11.81;100.00;97385.97;5010946;28;20486;-44
2022/09/12 00:32:10;;;;;;;10.90;8.13;;;12.20;99.90;;;11.79;100.00;97386.03;5009331;28;20041;-46
2022/09/12 00:34:36;;;;;;;8.57;7.68;;;12.10;99.90;;;11.76;100.00;97385.31;5009555;28;20409;-44
2022/09/12 00:37:02;;;;;;;8.88;7.38;;;12.10;99.90;;;11.74;100.00;97377.44;5016498;28;20033;-45
2022/09/12 00:39:28;;;;;;;9.35;7.68;;;12.10;99.90;;;11.71;100.00;97382.84;5016793;28;20032;-47
2022/09/12 00:41:54;;;;;;;11.60;7.78;;;12.10;99.90;;;11.68;100.00;97382.13;5015495;28;20026;-48
2022/09/12 00:44:22;;;;;;;9.00;7.90;;;12.10;99.90;;;11.68;100.00;97374.19;5006563;28;20392;-48
2022/09/12 00:47:00;;;;;;;9.95;7.78;;;12.10;99.90;;;11.65;100.00;97372.56;5012494;28;20029;-47
2022/09/12 00:50:08;;;;;;;9.73;8.10;;;12.00;99.90;;;11.63;100.00;97377.03;4995397;28;20091;-48
2022/09/12 00:52:44;;;;;;;8.98;7.30;;;12.00;99.90;;;11.61;100.00;97371.81;5008230;28;20029;-48
2022/09/12 00:55:19;;;;;;;10.25;8.30;;;12.00;99.90;;;11.58;100.00;97371.94;5011914;28;20169;-45
2022/09/12 00:57:59;;;;;;;9.20;8.02;;;11.90;99.90;;;11.56;100.00;97368.50;5009795;28;20299;-46
2022/09/12 01:00:26;;;;;;;9.45;8.18;;;11.90;99.90;;;11.55;100.00;97372.06;4991745;28;20040;-48
2022/09/12 01:03:01;;;;;;;10.73;7.97;;;11.90;99.90;;;11.48;100.00;97360.03;5002275;28;20035;-46
2022/09/12 01:05:29;;;;;;;9.30;7.60;;;11.90;99.90;;;11.48;100.00;97362.66;4992054;28;20026;-48
2022/09/12 01:07:56;;;;;;;10.73;8.30;;;11.90;99.90;;;11.48;100.00;97357.38;4993511;28;20040;-46
2022/09/12 01:10:23;;;;;;;10.80;8.13;;;11.90;99.90;;;11.49;100.00;97361.75;4997176;28;20030;-46
2022/09/12 01:12:49;;;;;;;9.70;7.65;;;11.90;99.90;;;11.44;100.00;97346.09;5010417;28;20064;-46
2022/09/12 01:15:15;;;;;;;9.90;8.30;;;11.80;99.90;;;11.46;100.00;97353.94;5010281;28;20044;-47
2022/09/12 01:17:53;;;;;;;9.73;8.55;;;11.80;99.90;;;11.44;100.00;97345.25;5009664;28;20041;-46
2022/09/12 01:21:04;;;;;;;10.88;8.13;;;11.80;99.90;;;11.41;100.00;97348.00;5011172;28;20049;-48
2022/09/12 01:24:18;;;;;;;10.68;7.88;;;11.80;99.90;;;11.38;100.00;97343.72;5011622;28;20173;-45
2022/09/12 01:27:08;;;;;;;10.50;8.73;;;11.80;99.90;;;11.37;100.00;97343.78;5013899;28;20029;-45
2022/09/12 01:30:14;;;;;;;11.27;8.38;;;11.80;99.90;;;11.37;100.00;97341.13;5016759;28;20041;-48
2022/09/12 01:33:24;;;;;;;13.07;8.70;;;11.80;99.90;;;11.35;100.00;97327.16;5006424;28;20037;-47
2022/09/12 01:36:30;;;;;;;9.10;7.95;;;11.80;99.90;;;11.33;100.00;97334.28;4984784;28;20038;-47
2022/09/12 01:39:02;;;;;;;9.07;8.15;;;11.70;99.90;;;11.32;100.00;97335.19;4992217;28;20122;-46
2022/09/12 01:42:09;;;;;;;9.98;8.05;;;11.70;99.90;;;11.30;100.00;97340.50;5001422;28;20044;-47
2022/09/12 01:45:27;;;;;;;9.30;8.10;;;11.70;99.90;;;11.28;100.00;97339.72;5010282;28;20057;-48
2022/09/12 01:48:03;;;;;;;10.60;8.43;;;11.70;99.90;;;11.23;100.00;97326.72;4914163;28;20512;-48
2022/09/12 01:50:40;;;;;;;11.45;9.18;;;11.60;99.90;;;11.20;100.00;97313.66;4994355;28;20044;-48
2022/09/12 01:53:14;;;;;;;11.77;8.57;;;11.60;99.90;;;11.23;100.00;97318.81;4993419;28;20355;-49
2022/09/12 01:55:53;;;;;;;10.15;8.25;;;11.60;99.90;;;11.19;100.00;97322.47;4996217;28;20052;-47
2022/09/12 01:58:28;;;;;;;12.88;9.35;;;11.60;99.90;;;11.23;100.00;97331.13;4995897;28;20048;-47
2022/09/12 02:01:29;;;;;;;11.48;8.52;;;11.60;99.90;;;11.20;100.00;97324.22;4998122;28;20120;-48
2022/09/12 02:04:23;;;;;;;9.57;8.20;;;11.60;99.90;;;11.18;100.00;97314.63;4981419;28;20104;-48
2022/09/12 02:06:57;;;;;;;10.15;8.77;;;11.60;99.90;;;11.16;100.00;97319.97;4986512;28;20471;-48
2022/09/12 02:09:50;;;;;;;11.60;8.90;;;11.60;99.90;;;11.09;100.00;97310.59;4995458;28;20026;-48
2022/09/12 02:12:22;;;;;;;12.40;9.50;;;11.60;99.90;;;11.13;100.00;97314.81;4984722;28;20545;-46
2022/09/12 02:14:53;;;;;;;9.48;8.40;;;11.50;99.90;;;11.11;100.00;97311.38;4990031;28;20129;-49
2022/09/12 02:17:23;;;;;;;11.07;9.13;;;11.50;99.90;;;11.08;100.00;97312.34;4987766;28;20498;-49
2022/09/12 02:19:56;;;;;;;10.95;8.70;;;11.50;99.90;;;11.06;100.00;97305.44;5008363;28;20037;-48
2022/09/12 02:22:25;;;;;;;13.60;9.68;;;11.50;99.90;;;11.06;100.00;97306.28;4994056;28;20034;-48
2022/09/12 02:24:59;;;;;;;10.23;9.10;;;11.50;99.90;;;11.02;100.00;97299.41;5012664;28;20215;-48
2022/09/12 02:27:40;;;;;;;12.27;8.80;;;11.40;99.90;;;11.03;100.00;97310.81;4991808;28;20021;-48
2022/09/12 02:30:08;;;;;;;12.77;10.02;;;11.40;99.90;;;11.02;100.00;97309.13;4993066;28;20104;-47
2022/09/12 02:32:42;;;;;;;13.32;9.68;;;11.40;99.90;;;11.01;100.00;97316.16;5003522;28;20029;-48
2022/09/12 02:35:35;;;;;;;12.90;9.15;;;11.40;99.90;;;10.98;100.00;97303.13;5000594;28;20061;-48
2022/09/12 02:38:19;;;;;;;12.10;10.02;;;11.40;99.90;;;10.96;100.00;97304.06;5004137;28;20131;-46
2022/09/12 02:40:44;;;;;;;12.80;10.13;;;11.40;99.90;;;10.93;100.00;97307.72;4993716;23;20046;-43
2022/09/12 02:43:10;;;;;;;13.68;10.55;;;11.30;99.90;;;10.92;100.00;97305.13;4973655;28;20038;-43
2022/09/12 02:45:36;;;;;;;13.10;10.07;;;11.30;99.90;;;10.91;100.00;97303.41;4974382;28;20053;-43
2022/09/12 02:48:09;;;;;;;13.13;9.88;;;11.30;99.90;;;10.89;100.00;97299.06;4970067;28;20032;-43
2022/09/12 02:50:35;;;;;;;10.57;9.23;;;11.30;99.90;;;10.82;100.00;97281.75;4975074;28;20092;-43
2022/09/12 02:53:03;;;;;;;12.80;10.50;;;11.30;99.90;;;10.85;100.00;97301.88;4972713;28;20022;-43
2022/09/12 02:55:32;;;;;;;12.43;9.50;;;11.30;99.90;;;10.84;100.00;97295.75;4975857;28;20069;-43
2022/09/12 02:58:02;;;;;;;11.68;8.98;;;11.20;99.90;;;10.84;100.00;97293.09;4972683;28;20022;-43
2022/09/12 03:00:34;;;;;;;13.00;9.95;;;11.20;99.90;;;10.69;100.00;97269.94;4967211;28;20054;-43
2022/09/12 03:03:37;;;;;;;14.77;10.13;;;11.20;99.90;;;10.82;100.00;97287.03;4958546;28;20022;-43
2022/09/12 03:06:17;;;;;;;12.68;10.15;;;11.20;99.90;;;10.80;100.00;97283.59;4952404;28;20100;-44
2022/09/12 03:09:04;;;;;;;10.25;8.90;;;11.20;99.90;;;10.78;100.00;97285.41;4973710;28;20073;-44
2022/09/12 03:11:39;;;;;;;13.55;10.02;;;11.20;99.90;;;10.78;100.00;97293.31;4956897;28;20069;-43
2022/09/12 03:14:42;;;;;;;11.93;9.32;;;11.20;99.90;;;10.75;100.00;97293.47;4969827;28;20026;-43
2022/09/12 03:17:55;;;;;;;11.75;10.27;;;11.20;99.90;;;10.75;100.00;97295.22;4974756;28;20128;-43
2022/09/12 03:20:37;;;;;;;13.65;9.70;;;11.10;99.90;;;10.73;100.00;97297.06;4930327;28;20564;-43
2022/09/12 03:23:24;;;;;;;12.68;9.98;;;11.10;99.90;;;10.67;100.00;97291.09;4972314;28;20131;-43
2022/09/12 03:26:06;;;;;;;12.80;9.45;;;11.10;99.90;;;10.67;100.00;97295.53;4972834;28;20026;-43
2022/09/12 03:28:33;;;;;;;12.07;9.30;;;11.10;99.90;;;10.66;100.00;97293.84;4975496;28;20026;-42
2022/09/12 03:30:59;;;;;;;13.15;9.45;;;11.10;99.90;;;10.65;100.00;97305.28;4950033;28;20065;-43
2022/09/12 03:33:25;;;;;;;14.48;10.13;;;11.00;99.90;;;10.63;100.00;97296.59;4973558;28;20113;-43
2022/09/12 03:35:52;;;;;;;11.43;9.35;;;11.00;99.90;;;10.54;100.00;97278.47;4953960;28;20026;-43
2022/09/12 03:38:19;;;;;;;13.60;9.85;;;11.00;99.90;;;10.58;100.00;97295.91;4967909;28;20515;-43
2022/09/12 03:40:45;;;;;;;13.65;9.98;;;11.00;99.90;;;10.58;100.00;97303.81;4965592;28;20042;-43
2022/09/12 03:43:11;;;;;;;12.82;9.15;;;11.00;99.90;;;10.54;100.00;97289.03;4973932;28;20196;-43
2022/09/12 03:45:37;;;;;;;11.25;9.13;;;11.00;99.90;;;10.53;100.00;97296.06;4973037;28;20026;-43
2022/09/12 03:48:05;;;;;;;14.60;9.38;;;11.00;99.90;;;10.54;100.00;97300.44;4976908;28;20041;-43
2022/09/12 03:50:30;;;;;;;13.82;9.68;;;11.00;99.90;;;10.54;100.00;97296.94;4972972;28;20280;-43
2022/09/12 03:52:58;;;;;;;12.07;9.35;;;10.90;99.90;;;10.53;100.00;97293.41;4972022;28;20386;-43
2022/09/12 03:55:25;;;;;;;12.77;9.15;;;10.90;99.90;;;10.52;100.00;97296.16;4970798;28;20168;-43
2022/09/12 03:57:52;;;;;;;11.70;9.48;;;10.90;99.90;;;10.52;100.00;97288.22;4968969;28;20454;-43
2022/09/12 04:00:18;;;;;;;12.45;9.70;;;11.00;99.90;;;10.51;100.00;97292.63;4964785;28;20023;-43
2022/09/12 04:02:44;;;;;;;10.93;9.38;;;10.90;99.90;;;10.50;100.00;97297.03;4970033;28;20474;-43
2022/09/12 04:05:10;;;;;;;12.35;9.85;;;10.90;99.90;;;10.47;100.00;97289.25;4969099;28;20058;-43
2022/09/12 04:07:35;;;;;;;13.63;10.70;;;10.90;99.90;;;10.47;100.00;97291.88;4966888;28;20022;-43
2022/09/12 04:10:01;;;;;;;13.73;10.05;;;10.90;99.90;;;10.47;100.00;97297.16;4967559;28;20041;-43
2022/09/12 04:12:28;;;;;;;11.38;10.13;;;10.90;99.90;;;10.41;100.00;97284.22;4966110;28;20489;-43
2022/09/12 04:14:54;;;;;;;15.52;11.05;;;10.90;99.90;;;10.41;100.00;97286.84;4969967;28;20934;-43
2022/09/12 04:17:20;;;;;;;15.07;11.20;;;10.90;99.90;;;10.45;100.00;97292.88;4970047;28;20491;-44
2022/09/12 04:19:46;;;;;;;15.13;11.18;;;10.90;99.90;;;10.44;100.00;97289.34;4966882;28;20731;-44
2022/09/12 04:22:12;;;;;;;16.50;10.90;;;10.90;99.90;;;10.42;100.00;97287.72;4961276;28;20515;-42
2022/09/12 04:24:37;;;;;;;15.98;11.10;;;10.80;99.90;;;10.42;100.00;97287.72;4968025;28;20026;-42
2022/09/12 04:27:03;;;;;;;13.80;11.25;;;10.80;99.90;;;10.40;100.00;97289.56;4968383;28;20387;-43
2022/09/12 04:29:30;;;;;;;16.38;11.13;;;10.80;99.90;;;10.38;100.00;97286.97;4972604;28;20030;-44
2022/09/12 04:31:55;;;;;;;15.25;11.30;;;10.80;99.90;;;10.37;100.00;97290.50;4972229;28;20220;-43
2022/09/12 04:34:22;;;;;;;13.95;10.88;;;10.80;99.90;;;10.36;100.00;97290.59;4973026;28;20049;-45
2022/09/12 04:36:47;;;;;;;17.00;11.60;;;10.80;99.90;;;10.35;100.00;97291.50;4972922;28;20058;-43
2022/09/12 04:39:13;;;;;;;16.17;11.27;;;10.80;99.90;;;10.33;100.00;97291.56;4973522;28;20045;-43
2022/09/12 04:41:42;;;;;;;14.00;10.65;;;10.80;99.90;;;10.22;100.00;97272.63;4966103;28;20121;-42
2022/09/12 04:44:13;;;;;;;13.82;11.15;;;10.80;99.90;;;10.25;100.00;97280.41;4969991;28;20029;-43
2022/09/12 04:46:43;;;;;;;13.13;10.68;;;10.70;99.90;;;10.31;100.00;97288.13;4969682;28;20057;-45
2022/09/12 04:49:10;;;;;;;11.52;9.75;;;10.80;99.90;;;10.26;100.00;97284.75;4970650;28;20505;-43
2022/09/12 04:51:38;;;;;;;13.27;10.73;;;10.70;99.90;;;10.23;100.00;97283.09;4967561;28;20034;-44
2022/09/12 04:54:12;;;;;;;15.13;11.13;;;10.80;99.90;;;10.28;100.00;97290.81;4971386;28;20383;-43
2022/09/12 04:56:40;;;;;;;15.50;10.50;;;10.70;99.90;;;10.27;100.00;97283.84;4973984;28;20067;-42
2022/09/12 04:59:07;;;;;;;16.85;10.63;;;10.70;99.90;;;10.29;100.00;97284.66;4971824;28;20049;-43
2022/09/12 05:01:34;;;;;;;15.85;11.75;;;10.70;99.90;;;10.22;100.00;97269.97;4966531;28;21878;-42
2022/09/12 05:04:01;;;;;;;15.52;11.60;;;10.70;99.90;;;10.24;100.00;97276.06;4967954;28;20586;-43
2022/09/12 05:06:30;;;;;;;14.75;11.63;;;10.80;99.90;;;10.32;100.00;97287.22;4970126;28;20038;-42
2022/09/12 05:08:57;;;;;;;14.90;11.65;;;10.70;99.90;;;10.33;100.00;97286.28;4971683;28;20101;-43
2022/09/12 05:11:28;;;;;;;16.55;12.20;;;10.80;99.90;;;10.36;100.00;97285.31;4963282;28;20062;-43
2022/09/12 05:13:54;;;;;;;15.70;12.05;;;10.80;99.90;;;10.37;100.00;97282.59;4967071;28;20030;-42
2022/09/12 05:16:22;;;;;;;14.27;11.40;;;10.80;99.90;;;10.34;100.00;97276.59;4968611;28;21571;-43
2022/09/12 05:18:49;;;;;;;16.73;12.27;;;10.80;99.90;;;10.42;100.00;97283.28;4952449;28;20026;-43
2022/09/12 05:21:18;;;;;;;15.38;11.60;;;10.90;99.90;;;10.43;100.00;97285.03;4967808;28;20030;-42
2022/09/12 05:23:44;;;;;;;16.35;11.25;;;10.90;99.90;;;10.46;100.00;97286.66;4969529;28;20066;-44
2022/09/12 05:26:14;;;;;;;14.00;11.60;;;10.90;99.90;;;10.49;100.00;97281.28;4972562;28;20129;-43
2022/09/12 05:28:40;;;;;;;16.55;11.98;;;10.90;99.90;;;10.55;100.00;97281.06;4959883;28;20104;-44
2022/09/12 05:31:18;;;;;;;17.30;11.50;;;11.00;99.90;;;10.57;100.00;97273.94;4969542;28;20497;-42
2022/09/12 05:33:46;;;;;;;16.13;11.77;;;11.00;99.90;;;10.65;100.00;97289.47;4973339;28;20286;-43
2022/09/12 05:36:19;;;;;;;14.23;11.32;;;11.10;99.90;;;10.71;100.00;97294.47;4970755;28;21507;-43
2022/09/12 05:38:45;;;;;;;;;;;11.10;99.90;;;10.74;100.00;97298.78;4967243;28;20169;-42
2022/09/12 05:41:15;;;;;;;17.20;11.60;;;11.20;99.90;;;10.76;100.00;97283.78;4971582;28;19926;-43
2022/09/12 05:43:42;;;;;;;20.63;12.57;;;11.20;99.90;;;10.65;100.00;97276.28;4971214;28;20034;-42
2022/09/12 05:46:13;;;;;;;15.32;11.57;;;11.30;99.90;;;10.91;100.00;97306.03;4968960;28;20089;-42
2022/09/12 05:48:41;;;;;;;17.25;11.50;;;11.30;99.90;;;10.96;100.00;97304.06;4956549;28;20109;-43
2022/09/12 05:51:16;;;;;;;16.80;12.50;;;11.40;99.90;;;11.01;100.00;97305.59;4971558;28;20042;-42
2022/09/12 05:53:42;;;;;;;15.30;12.40;;;11.40;99.90;;;11.00;100.00;97292.47;4977595;28;20026;-43
2022/09/12 05:56:14;;;;;;;21.00;12.38;;;11.50;99.90;;;11.07;100.00;97291.31;4975575;28;20500;-44
2022/09/12 05:58:44;;;;;;;15.23;11.85;;;11.60;99.90;;;11.17;100.00;97297.94;4974092;28;20092;-43
2022/09/12 06:01:14;;;;;;;16.05;12.32;;;11.60;99.90;;;11.22;100.00;97303.88;4972765;28;20403;-42
2022/09/12 06:03:46;;;;;;;17.60;11.48;;;11.70;99.90;;;11.28;100.00;97303.63;4972187;28;20431;-42
2022/09/12 06:06:14;;;;;;;18.33;12.60;;;11.70;99.90;;;11.33;100.00;97298.16;4974602;28;20867;-42
2022/09/12 06:08:43;;;;;;;17.60;13.25;;;11.80;99.90;;;11.39;100.00;97302.31;4977691;28;20038;-42
2022/09/12 06:11:13;;;;;;;14.90;11.63;;;11.80;99.90;;;11.41;100.00;97293.44;4979386;28;20038;-44
2022/09/12 06:13:41;;;;;;;15.07;12.07;;;11.90;99.90;;;11.52;100.00;97305.31;4976095;28;20056;-42
2022/09/12 06:16:13;;;;;;;14.52;11.38;;;12.00;99.90;;;11.57;100.00;97304.19;4974542;28;20035;-43
2022/09/12 06:18:40;;;;;;;13.88;11.27;;;12.00;99.90;;;11.65;100.00;97298.59;4970563;28;20492;-44
2022/09/12 06:21:09;;;;;;;17.13;12.30;;;12.10;99.90;;;11.70;100.00;97296.63;4977825;28;20093;-43
2022/09/12 06:23:36;;;;;;;13.82;11.38;;;12.20;99.90;;;11.76;100.00;97293.69;4978120;28;20027;-43
2022/09/12 06:26:04;;;;;;;15.65;10.82;;;12.20;99.90;;;11.85;100.00;97295.09;4968676;28;20027;-42
2022/09/12 06:28:31;;;;;;;18.98;11.32;;;12.30;99.90;;;11.90;100.00;97301.06;4956503;28;20038;-43
2022/09/12 06:31:03;;;;;;;15.23;11.85;;;12.40;99.90;;;11.94;100.00;97286.78;4977717;28;20616;-43
2022/09/12 06:33:32;;;;;;;18.58;13.38;;;12.40;99.90;;;11.96;100.00;97282.28;4976595;28;20033;-43
2022/09/12 06:36:14;;;;;;;14.63;11.60;;;12.50;99.90;;;12.09;100.00;97293.16;4979235;28;20039;-43
2022/09/12 06:38:40;;;;;;;;;;;12.60;99.90;;;12.16;100.00;97289.31;4976230;28;20026;-43
2022/09/12 06:41:10;;;;;;;12.63;10.18;;;12.60;99.90;;;12.23;100.00;97298.69;4975157;28;20707;-42
2022/09/12 06:43:36;;;;;;;13.10;11.07;;;12.70;99.90;;;12.30;100.00;97293.97;4976382;28;20066;-43
2022/09/12 06:46:03;;;;;;;14.40;11.60;;;12.80;99.90;;;12.36;100.00;97296.38;4968164;28;20486;-43
2022/09/12 06:48:28;;;;;;;15.48;11.82;;;12.90;99.90;;;12.38;100.00;97288.34;4971108;28;20126;-44
2022/09/12 06:51:03;;;;;;;15.85;12.23;;;12.90;99.90;;;12.51;100.00;97302.72;4970901;28;20026;-43
2022/09/12 06:53:32;;;;;;;14.27;11.75;;;13.00;99.90;;;12.60;100.00;97294.34;4971335;28;20042;-42
2022/09/12 06:56:09;;;;;;;17.77;12.27;;;13.10;99.90;;;12.65;100.00;97299.44;4977439;28;20034;-42
2022/09/12 06:58:36;;;;;;;15.82;10.82;;;13.20;99.90;;;12.65;100.00;97280.03;4978500;28;20035;-42
2022/09/12 07:01:14;;;;;;;14.70;11.27;;;13.30;99.90;;;12.91;100.00;97310.56;4977101;28;20089;-43
2022/09/12 07:03:40;;;;;;;18.30;10.57;;;13.40;99.90;;;13.03;100.00;97314.41;4971377;28;20038;-42
2022/09/12 07:06:12;;;;;;;16.02;10.48;;;13.50;99.90;;;13.03;100.00;97288.81;4975987;28;20038;-43
2022/09/12 07:08:39;;;;;;;9.82;8.07;;;13.60;99.90;;;13.24;100.00;97304.56;4977397;28;20026;-43
2022/09/12 07:11:16;;;;;;;12.15;10.38;;;13.70;99.90;;;13.31;100.00;97301.56;4961491;28;20235;-42
2022/09/12 07:13:43;;;;;;;14.27;10.38;;;13.80;99.90;;;13.42;100.00;97303.69;4977439;28;20039;-43
2022/09/12 07:16:10;;;;;;;17.02;10.60;;;13.90;99.90;;;13.43;100.00;97288.66;4974819;28;20026;-43
2022/09/12 07:18:37;;;;;;;13.02;10.15;;;14.00;99.90;;;13.64;100.00;97295.53;4975640;28;20105;-43
2022/09/12 07:21:06;;;;;;;18.58;10.20;;;14.10;99.90;;;13.71;100.00;97296.94;4977572;28;20054;-44
2022/09/12 07:23:32;;;;;;;11.35;8.40;;;14.20;99.90;;;13.80;100.00;97297.38;4976401;28;20498;-43
2022/09/12 07:25:59;;;;;;;11.10;8.52;;;14.30;99.90;;;13.86;100.00;97289.13;4976686;28;20160;-44
2022/09/12 07:28:30;;;;;;;12.57;8.23;;;14.40;99.90;;;14.09;100.00;97307.34;4974619;28;20043;-42
2022/09/12 07:30:57;;;;;;;10.85;8.38;;;14.60;99.90;;;14.21;100.00;97302.31;4973780;28;20061;-42
2022/09/12 07:33:27;;;;;;;9.45;6.88;;;14.60;99.90;;;14.34;100.00;97303.38;4976034;28;20088;-43
2022/09/12 07:35:53;;;;;;;9.80;6.78;;;14.80;99.90;;;14.44;100.00;97306.38;4957621;28;20100;-43
2022/09/12 07:38:23;;;;;;;10.23;6.93;;;14.90;99.90;;;14.43;100.00;97286.97;4972440;28;20039;-45
2022/09/12 07:40:49;;;;;;;11.70;8.90;;;15.00;99.90;;;14.62;100.00;97312.53;4976576;28;20073;-42
2022/09/12 07:43:14;;;;;;;9.15;7.32;;;15.10;99.90;;;14.72;100.00;97305.78;4974814;28;20101;-43
2022/09/12 07:45:41;;;;;;;10.32;8.20;;;15.20;99.90;;;14.84;100.00;97307.75;4980324;28;20466;-43
2022/09/12 07:48:08;;;;;;;9.20;6.65;;;15.20;99.90;;;14.93;100.00;97309.06;4975738;28;20022;-44
2022/09/12 07:50:35;;;;;;;8.57;6.82;;;15.30;99.90;;;15.05;100.00;97304.81;4976027;28;20109;-43
2022/09/12 07:53:02;;;;;;;8.98;6.97;;;15.40;99.90;;;15.17;100.00;97308.59;4974420;28;20035;-43
2022/09/12 07:55:28;;;;;;;11.20;6.78;;;15.60;99.90;;;15.31;100.00;97306.00;4976612;28;20425;-43
2022/09/12 07:57:54;;;;;;;6.68;5.47;;;15.70;99.90;;;15.43;100.00;97307.09;4975506;28;20074;-43
2022/09/12 08:00:20;;;;;;;7.45;5.25;;;15.80;99.90;;;15.55;100.00;97308.19;4975235;28;20035;-43
2022/09/12 08:02:51;;;;;;;8.15;5.65;;;16.00;99.90;;;15.70;100.00;97301.94;4977388;28;20495;-42
2022/09/12 08:05:17;;;;;;;8.27;5.32;;;16.10;99.90;;;15.84;100.00;97309.16;4978451;28;20478;-43
2022/09/12 08:07:43;;;;;;;8.93;6.07;;;16.20;99.90;;;15.99;100.00;97313.56;4981625;28;20046;-45
2022/09/12 08:10:09;;;;;;;9.15;5.75;;;16.30;99.90;;;16.12;100.00;97308.34;4977312;28;20063;-44
2022/09/12 08:12:35;;;;;;;8.00;5.65;;;16.50;99.90;;;16.29;100.00;97315.28;4978076;28;20038;-43
2022/09/12 08:15:01;;;;;;;9.55;6.72;;;16.60;99.90;;;16.44;100.00;97313.50;4974926;28;20522;-43
2022/09/12 08:17:28;;;;;;;6.38;5.38;;;16.70;99.90;;;16.57;100.00;97309.13;4973631;28;20253;-44
2022/09/12 08:19:55;;;;;;;7.45;6.07;;;16.90;99.90;;;16.69;100.00;97317.28;4978173;28;20042;-43
2022/09/12 08:22:21;;;;;;;7.22;5.90;;;17.00;99.90;;;16.80;100.00;97312.16;4975957;28;20053;-43
2022/09/12 08:24:47;;;;;;;7.50;5.75;;;17.10;99.90;;;16.92;100.00;97303.41;4974756;28;20495;-43
2022/09/12 08:27:14;;;;;;;8.43;5.78;;;17.20;99.90;;;16.98;100.00;97303.00;4981438;28;20034;-45
2022/09/12 08:29:40;;;;;;;8.07;5.55;;;17.30;99.90;;;17.06;100.00;97299.84;4979662;28;20034;-42
2022/09/12 08:32:06;;;;;;;7.90;5.85;;;17.40;99.90;;;17.15;100.00;97303.72;4979971;28;20038;-42
2022/09/12 08:34:31;;;;;;;6.20;5.53;;;17.40;99.90;;;17.19;99.52;97305.22;4976812;28;20022;-43
2022/09/12 08:36:57;;;;;;;5.60;5.10;;;17.40;99.90;;;17.29;100.00;97313.47;4980348;28;20032;-43
2022/09/12 08:39:23;;;;;;;9.40;5.25;;;17.50;99.90;;;17.38;97.25;97320.03;4978234;28;20126;-44
2022/09/12 08:42:04;;;;;;;7.13;4.60;;;17.60;99.90;;;17.39;92.35;97309.28;5001615;23;20075;-48
2022/09/12 08:45:04;;;;;;;6.10;4.35;;;17.70;99.90;;;17.46;93.93;97307.91;5001897;28;20532;-48
2022/09/12 08:47:37;;;;;;;5.55;4.57;;;17.70;99.90;;;17.52;94.81;97311.97;5000662;28;20478;-48
2022/09/12 08:50:16;;;;;;;9.68;3.97;;;17.80;99.90;;;17.60;93.44;97300.78;4994433;28;20048;-48
2022/09/12 08:52:55;;;;;;;4.10;3.42;;;17.80;99.90;;;17.69;92.79;97294.84;4984167;28;20237;-47
2022/09/12 08:55:30;;;;;;;7.10;4.20;;;17.90;99.90;;;17.74;90.39;97295.38;4982026;28;20463;-48
2022/09/12 08:57:59;;;;;;;7.25;3.30;;;18.00;99.90;;;17.77;89.42;97292.50;4983715;28;20116;-47
2022/09/12 09:00:39;;;;;;;5.47;3.63;;;18.10;99.90;;;17.89;90.10;97298.84;5011902;28;20524;-46
2022/09/12 09:03:28;;;;;;;5.55;3.53;;;18.10;99.90;;;17.93;89.61;97295.03;4976485;28;20099;-48
2022/09/12 09:06:12;;;;;;;6.47;3.25;;;18.20;99.90;;;18.00;87.25;97307.00;4983867;28;20037;-48
2022/09/12 09:09:13;;;;;;;4.63;3.35;;;18.20;99.90;;;18.06;86.16;97295.03;5013027;28;20084;-48
2022/09/12 09:12:05;;;;;;;3.42;2.97;;;18.30;99.90;;;18.10;87.54;97285.84;4983253;28;20509;-46
2022/09/12 09:14:46;;;;;;;;;;;18.40;99.90;;;18.21;83.79;97293.09;5012375;28;20359;-45
2022/09/12 09:17:24;;;;;;;4.95;3.75;;;18.50;99.90;;;18.34;87.03;97295.78;4983256;28;19913;-46
2022/09/12 09:20:03;;;;;;;6.93;3.92;;;18.50;99.90;;;18.44;85.72;97300.34;4986144;28;20084;-46
2022/09/12 09:22:41;;;;;;;4.30;3.55;;;18.70;99.90;;;18.59;84.79;97300.22;4982690;28;20402;-44
2022/09/12 09:25:36;;;;;;;4.30;3.42;;;18.80;99.90;;;18.66;82.35;97299.72;4983303;28;20038;-48
2022/09/12 09:28:15;;;;;;;4.40;3.45;;;18.90;99.90;;;18.69;82.48;97291.47;5012600;28;20081;-48
2022/09/12 09:30:43;;;;;;;8.43;2.90;;;18.90;99.90;;;18.73;79.86;97296.59;4980659;28;20034;-48
2022/09/12 09:33:20;;;;;;;5.13;3.22;;;19.00;99.90;;;18.83;80.58;97301.19;4983895;28;20944;-46
2022/09/12 09:36:16;;;;;;;5.03;3.10;;;19.00;99.90;;;18.94;79.08;97292.41;4983583;28;20517;-48
2022/09/12 09:38:50;;;;;;;4.55;2.75;;;19.20;99.90;;;19.00;76.94;97296.44;4975010;28;20039;-47
2022/09/12 09:42:11;;;;;;;3.78;2.75;;;19.20;99.90;;;19.05;77.29;97295.13;4985055;28;20030;-48
2022/09/12 09:44:37;;;;;;;8.15;3.15;;;19.30;99.90;;;19.14;78.28;97298.97;5013007;28;20121;-46
2022/09/12 09:47:04;;;;;;;4.85;3.13;;;19.40;99.90;;;19.27;77.12;97299.78;4984004;28;20034;-48
2022/09/12 09:49:32;;;;;;;2.97;2.60;;;19.50;99.90;;;19.37;76.71;97301.75;4982638;28;20053;-46
2022/09/12 09:51:59;;;;;;;4.53;2.88;;;19.60;99.90;;;19.44;75.51;97295.00;4984139;28;20037;-46
2022/09/12 09:54:34;;;;;;;4.30;3.30;;;19.70;99.90;;;19.45;72.75;97286.84;4984712;28;20026;-48
2022/09/12 09:57:00;;;;;;;6.55;2.78;;;19.70;99.90;;;19.58;72.95;97302.84;4981681;28;20310;-48
2022/09/12 09:59:30;;;;;;;3.20;2.80;;;19.80;99.90;;;19.64;72.89;97299.69;4983084;28;20030;-46
2022/09/12 10:02:12;;;;;;;3.20;2.33;;;19.90;99.90;;;19.75;73.28;97301.59;4980181;28;20041;-48
2022/09/12 10:04:52;;;;;;;3.30;2.45;;;20.00;99.90;;;19.88;71.17;97303.31;4981115;28;20117;-48
2022/09/12 10:07:23;;;;;;;3.00;2.38;;;20.10;99.90;;;19.94;67.52;97290.34;4982618;28;20026;-48
2022/09/12 10:10:14;;;;;;;2.60;2.20;;;20.10;99.90;;;19.91;64.79;97285.22;5010657;28;20037;-48
2022/09/12 10:12:40;;;;;;;2.88;2.22;;;20.20;99.90;;;19.87;62.25;97289.09;4981104;28;20193;-49
2022/09/12 10:15:26;;;;;;;3.78;2.42;;;20.10;99.90;;;19.94;66.79;97287.66;4982514;28;20031;-48
2022/09/12 10:17:57;;;;;;;2.92;2.10;;;20.20;99.90;;;20.02;67.68;97285.22;4979666;28;20104;-50
2022/09/12 10:20:43;;;;;;;4.53;2.20;;;20.20;99.90;;;20.12;66.47;97279.19;4983379;28;20042;-48
2022/09/12 10:23:39;;;;;;;2.83;2.00;;;20.30;99.90;;;20.15;62.48;97282.50;5010698;28;20608;-48
2022/09/12 10:26:11;;;;;;;2.90;2.08;;;20.40;99.90;;;20.20;64.73;97292.81;5009511;28;20034;-48
2022/09/12 10:28:49;;;;;;;5.40;2.20;;;20.40;99.90;;;20.17;61.30;97280.53;4982044;28;20398;-48
2022/09/12 10:31:52;;;;;;;4.30;2.20;;;20.40;99.90;;;20.30;62.15;97291.13;5011912;28;20277;-49